createdAt,value
2023-06-29T00:00:12.809Z,94786.59
2023-06-29T00:02:14.480Z,94782.38
2023-06-29T00:04:22.350Z,94780.19
2023-06-29T00:06:24.061Z,94780.00
2023-06-29T00:08:27.200Z,94790.06
2023-06-29T00:10:30.181Z,94792.47
2023-06-29T00:12:31.921Z,94788.81
2023-06-29T00:14:33.606Z,94778.72
2023-06-29T00:16:36.289Z,94776.81
2023-06-29T00:18:38.015Z,94784.94
2023-06-29T00:20:40.869Z,94780.19
2023-06-29T00:22:49.236Z,94778.09
2023-06-29T00:24:56.541Z,94768.28
2023-06-29T00:26:58.189Z,94766.09
2023-06-29T00:28:59.774Z,94767.88
2023-06-29T00:31:01.507Z,94764.25
2023-06-29T00:33:03.250Z,94757.59
2023-06-29T00:35:05.256Z,94753.31
2023-06-29T00:37:07.002Z,94755.84
2023-06-29T00:39:08.778Z,94757.09
2023-06-29T00:41:10.605Z,94757.56
2023-06-29T00:43:12.251Z,94759.00
2023-06-29T00:45:13.943Z,94757.38
2023-06-29T00:47:15.828Z,94767.16
2023-06-29T00:49:17.843Z,94766.53
2023-06-29T00:51:19.558Z,94774.22
2023-06-29T00:53:21.163Z,94768.94
2023-06-29T00:55:22.816Z,94775.59
2023-06-29T00:57:25.349Z,94775.72
2023-06-29T00:59:27.137Z,94772.81
2023-06-29T01:01:28.875Z,94773.44
2023-06-29T01:03:32.072Z,94774.44
2023-06-29T01:05:35.124Z,94770.44
2023-06-29T01:08:00.639Z,94775.22
2023-06-29T01:10:04.866Z,94778.03
2023-06-29T01:12:07.448Z,94777.41
2023-06-29T01:14:12.196Z,94773.88
2023-06-29T01:16:15.461Z,94772.41
2023-06-29T01:18:18.055Z,94777.13
2023-06-29T01:20:20.111Z,94771.03
2023-06-29T01:22:27.764Z,94770.69
2023-06-29T01:24:38.428Z,94769.84
2023-06-29T01:26:40.050Z,94777.56
2023-06-29T01:28:41.719Z,94775.97
2023-06-29T01:30:50.786Z,94775.13
2023-06-29T01:32:52.713Z,94777.56
2023-06-29T01:34:54.639Z,94768.22
2023-06-29T01:37:03.234Z,94776.69
2023-06-29T01:39:18.450Z,94770.78
2023-06-29T01:41:20.828Z,94774.06
2023-06-29T01:43:23.233Z,94771.84
2023-06-29T01:45:25.921Z,94767.59
2023-06-29T01:47:28.466Z,94766.50
2023-06-29T01:49:30.238Z,94766.75
2023-06-29T01:51:32.035Z,94770.03
2023-06-29T01:53:37.237Z,94767.09
2023-06-29T01:55:38.977Z,94770.38
2023-06-29T01:57:40.721Z,94770.03
2023-06-29T01:59:42.793Z,94770.03
2023-06-29T02:01:44.468Z,94765.09
2023-06-29T02:03:46.264Z,94768.75
2023-06-29T02:05:48.039Z,94772.38
2023-06-29T02:07:49.773Z,94775.59
2023-06-29T02:09:52.659Z,94779.03
2023-06-29T02:11:54.465Z,94779.81
2023-06-29T02:13:56.192Z,94780.78
2023-06-29T02:15:57.888Z,94782.06
2023-06-29T02:17:59.719Z,94777.41
2023-06-29T02:20:01.448Z,94773.31
2023-06-29T02:22:03.170Z,94777.97
2023-06-29T02:24:05.582Z,94774.94
2023-06-29T02:26:07.468Z,94775.59
2023-06-29T02:28:09.189Z,94769.66
2023-06-29T02:30:11.219Z,94769.50
2023-06-29T02:32:12.890Z,94776.94
2023-06-29T02:34:14.531Z,94772.69
2023-06-29T02:36:22.203Z,94772.31
2023-06-29T02:38:24.000Z,94766.59
2023-06-29T02:40:25.670Z,94767.13
2023-06-29T02:42:28.479Z,94768.53
2023-06-29T02:44:30.128Z,94766.44
2023-06-29T02:46:31.847Z,94770.44
2023-06-29T02:48:33.528Z,94775.28
2023-06-29T02:50:35.335Z,94774.00
2023-06-29T02:52:36.966Z,94774.19
2023-06-29T02:54:38.607Z,94777.63
2023-06-29T02:56:40.346Z,94778.47
2023-06-29T02:58:42.001Z,94784.09
2023-06-29T03:00:43.703Z,94776.81
2023-06-29T03:02:45.433Z,94782.19
2023-06-29T03:04:47.050Z,94776.81
2023-06-29T03:06:48.730Z,94782.81
2023-06-29T03:08:50.435Z,94785.03
2023-06-29T03:10:52.615Z,94783.56
2023-06-29T03:12:54.296Z,94789.84
2023-06-29T03:14:55.960Z,94789.59
2023-06-29T03:16:57.676Z,94785.03
2023-06-29T03:18:59.370Z,94789.59
2023-06-29T03:21:12.537Z,94790.09
2023-06-29T03:23:19.152Z,94788.09
2023-06-29T03:25:20.760Z,94789.56
2023-06-29T03:27:22.381Z,94789.84
2023-06-29T03:29:24.142Z,94794.31
2023-06-29T03:31:25.848Z,94795.47
2023-06-29T03:33:27.589Z,94794.66
2023-06-29T03:35:29.255Z,94796.00
2023-06-29T03:37:30.859Z,94796.47
2023-06-29T03:39:32.523Z,94795.53
2023-06-29T03:41:34.137Z,94802.44
2023-06-29T03:43:35.871Z,94800.34
2023-06-29T03:45:37.497Z,94800.25
2023-06-29T03:47:39.201Z,94798.84
2023-06-29T03:49:40.812Z,94802.69
2023-06-29T03:51:42.493Z,94799.69
2023-06-29T03:53:44.285Z,94799.38
2023-06-29T03:55:46.497Z,94807.84
2023-06-29T03:57:49.094Z,94798.66
2023-06-29T03:59:50.785Z,94799.94
2023-06-29T04:01:52.396Z,94811.50
2023-06-29T04:03:54.856Z,94810.56
2023-06-29T04:05:56.606Z,94812.66
2023-06-29T04:08:06.312Z,94809.66
2023-06-29T04:10:08.441Z,94811.91
2023-06-29T04:12:10.374Z,94801.03
2023-06-29T04:14:12.003Z,94817.28
2023-06-29T04:16:14.676Z,94815.03
2023-06-29T04:18:16.338Z,94816.47
2023-06-29T04:20:18.375Z,94812.09
2023-06-29T04:22:20.070Z,94814.94
2023-06-29T04:24:21.961Z,94816.19
2023-06-29T04:26:23.816Z,94817.06
2023-06-29T04:28:25.572Z,94803.69
2023-06-29T04:30:27.234Z,94809.41
2023-06-29T04:32:28.942Z,94809.53
2023-06-29T04:34:31.252Z,94804.44
2023-06-29T04:36:33.011Z,94803.78
2023-06-29T04:38:34.694Z,94802.97
2023-06-29T04:40:40.267Z,94808.69
2023-06-29T04:42:49.146Z,94812.41
2023-06-29T04:44:50.871Z,94810.97
2023-06-29T04:46:52.530Z,94809.94
2023-06-29T04:48:54.158Z,94815.69
2023-06-29T04:51:03.490Z,94813.09
2023-06-29T04:53:10.723Z,94815.34
2023-06-29T04:55:12.546Z,94816.88
2023-06-29T04:57:14.183Z,94819.25
2023-06-29T04:59:15.928Z,94821.81
2023-06-29T05:01:17.596Z,94820.97
2023-06-29T05:03:19.440Z,94819.50
2023-06-29T05:05:21.160Z,94828.53
2023-06-29T05:07:22.856Z,94830.19
2023-06-29T05:09:24.476Z,94833.59
2023-06-29T05:11:26.172Z,94828.88
2023-06-29T05:13:27.807Z,94827.69
2023-06-29T05:15:29.724Z,94833.72
2023-06-29T05:17:33.744Z,94837.72
2023-06-29T05:19:37.527Z,94839.25
2023-06-29T05:21:39.199Z,94839.03
2023-06-29T05:23:40.841Z,94842.44
2023-06-29T05:25:43.580Z,94843.28
2023-06-29T05:27:45.653Z,94840.50
2023-06-29T05:29:47.406Z,94848.69
2023-06-29T05:31:49.149Z,94835.72
2023-06-29T05:33:50.845Z,94843.81
2023-06-29T05:35:52.449Z,94839.63
2023-06-29T05:37:54.138Z,94841.69
2023-06-29T05:39:57.814Z,94844.09
2023-06-29T05:41:59.341Z,94848.69
2023-06-29T05:44:01.127Z,94844.78
2023-06-29T05:46:04.065Z,94842.84
2023-06-29T05:48:06.692Z,94834.91
2023-06-29T05:50:08.929Z,94847.03
2023-06-29T05:52:10.640Z,94849.75
2023-06-29T05:54:12.237Z,94855.94
2023-06-29T05:56:13.915Z,94858.03
2023-06-29T05:58:15.557Z,94849.22
2023-06-29T06:00:19.388Z,94844.66
2023-06-29T06:02:21.247Z,94849.59
2023-06-29T06:04:22.932Z,94842.59
2023-06-29T06:06:24.649Z,94844.75
2023-06-29T06:08:26.309Z,94846.22
2023-06-29T06:10:27.974Z,94846.50
2023-06-29T06:12:30.089Z,94845.16
2023-06-29T06:14:31.723Z,94851.44
2023-06-29T06:16:33.495Z,94853.22
2023-06-29T06:18:35.177Z,94848.50
2023-06-29T06:20:36.976Z,94843.63
2023-06-29T06:22:38.658Z,94842.25
2023-06-29T06:24:40.292Z,94839.63
2023-06-29T06:26:41.925Z,94843.03
2023-06-29T06:28:43.566Z,94843.13
2023-06-29T06:30:45.395Z,94838.28
2023-06-29T06:32:47.208Z,94848.69
2023-06-29T06:34:52.028Z,94839.53
2023-06-29T06:36:53.720Z,94840.31
2023-06-29T06:38:55.329Z,94845.47
2023-06-29T06:40:57.164Z,94851.38
2023-06-29T06:42:59.934Z,94854.69
2023-06-29T06:45:04.836Z,94846.88
2023-06-29T06:47:06.869Z,94853.34
2023-06-29T06:49:08.556Z,94844.69
2023-06-29T06:51:10.182Z,94853.97
2023-06-29T06:53:11.961Z,94843.28
2023-06-29T06:55:13.881Z,94838.69
2023-06-29T06:57:15.646Z,94840.31
2023-06-29T06:59:17.406Z,94841.78
2023-06-29T07:01:22.420Z,94844.38
2023-06-29T07:03:25.625Z,94835.81
2023-06-29T07:05:27.308Z,94841.56
2023-06-29T07:07:28.988Z,94847.56
2023-06-29T07:09:31.113Z,94852.31
2023-06-29T07:11:32.774Z,94839.69
2023-06-29T07:13:34.421Z,94845.72
2023-06-29T07:15:36.043Z,94842.19
2023-06-29T07:17:37.746Z,94840.13
2023-06-29T07:24:08.186Z,94842.03
2023-06-29T07:26:10.131Z,94841.19
2023-06-29T07:28:13.014Z,94837.03
2023-06-29T07:30:15.053Z,94834.34
2023-06-29T07:32:16.697Z,94836.00
2023-06-29T07:34:23.911Z,94838.75
2023-06-29T07:36:26.995Z,94832.94
2023-06-29T07:38:28.626Z,94836.41
2023-06-29T07:40:30.449Z,94831.38
2023-06-29T07:42:39.456Z,94830.03
2023-06-29T07:44:41.890Z,94826.41
2023-06-29T07:46:43.702Z,94819.56
2023-06-29T07:48:45.503Z,94825.91
2023-06-29T07:50:47.169Z,94834.91
2023-06-29T07:52:48.812Z,94826.59
2023-06-29T07:54:53.018Z,94827.00
2023-06-29T07:58:59.176Z,94823.56
2023-06-29T08:01:00.810Z,94823.16
2023-06-29T08:03:02.604Z,94819.28
2023-06-29T08:07:10.735Z,94824.19
2023-06-29T08:09:12.935Z,94817.72
2023-06-29T08:11:15.345Z,94818.97
2023-06-29T08:13:17.504Z,94822.25
2023-06-29T08:15:19.261Z,94817.72
2023-06-29T08:17:21.016Z,94816.50
2023-06-29T08:19:22.708Z,94818.44
2023-06-29T08:21:24.551Z,94822.34
2023-06-29T08:23:26.304Z,94826.63
2023-06-29T08:25:28.642Z,94827.06
2023-06-29T08:27:30.320Z,94817.28
2023-06-29T08:29:31.993Z,94816.47
2023-06-29T08:31:33.982Z,94821.56
2023-06-29T08:33:35.871Z,94813.53
2023-06-29T08:35:37.524Z,94823.34
2023-06-29T08:37:39.299Z,94826.06
2023-06-29T08:39:41.518Z,94818.47
2023-06-29T08:41:43.167Z,94813.94
2023-06-29T08:43:45.059Z,94814.34
2023-06-29T08:45:47.263Z,94813.19
2023-06-29T08:47:52.837Z,94814.56
2023-06-29T08:49:57.659Z,94809.81
2023-06-29T08:52:00.959Z,94812.00
2023-06-29T08:54:02.971Z,94801.69
2023-06-29T08:56:04.948Z,94805.50
2023-06-29T08:58:06.771Z,94806.06
2023-06-29T09:00:09.821Z,94801.94
2023-06-29T09:02:11.994Z,94800.22
2023-06-29T09:04:13.939Z,94794.19
2023-06-29T09:06:16.392Z,94805.38
2023-06-29T09:08:18.423Z,94791.81
2023-06-29T09:10:20.124Z,94794.06
2023-06-29T09:12:21.861Z,94789.75
2023-06-29T09:14:23.749Z,94803.63
2023-06-29T09:16:29.655Z,94782.75
2023-06-29T09:18:34.002Z,94789.44
2023-06-29T09:20:36.691Z,94792.22
2023-06-29T09:22:40.436Z,94798.03
2023-06-29T09:24:57.309Z,94790.19
2023-06-29T09:27:04.237Z,94788.88
2023-06-29T09:29:05.868Z,94793.09
2023-06-29T09:31:09.827Z,94790.13
2023-06-29T09:33:13.144Z,94788.84
2023-06-29T09:35:14.805Z,94787.94
2023-06-29T09:37:17.446Z,94778.50
2023-06-29T09:39:20.234Z,94786.09
2023-06-29T09:41:21.989Z,94786.72
2023-06-29T09:43:28.393Z,94776.41
2023-06-29T09:45:31.941Z,94783.53
2023-06-29T09:49:56.033Z,94777.31
2023-06-29T09:52:05.230Z,94777.72
2023-06-29T09:54:15.003Z,94783.34
2023-06-29T09:56:17.588Z,94779.91
2023-06-29T09:58:19.749Z,94792.22
2023-06-29T10:00:21.652Z,94786.13
2023-06-29T10:02:23.411Z,94777.03
2023-06-29T10:04:28.247Z,94773.44
2023-06-29T10:06:51.318Z,94788.38
2023-06-29T10:08:56.682Z,94774.09
2023-06-29T10:11:03.683Z,94777.66
2023-06-29T10:13:06.976Z,94769.94
2023-06-29T10:15:10.441Z,94766.19
2023-06-29T10:17:44.323Z,94758.63
2023-06-29T10:19:46.810Z,94769.31
2023-06-29T10:21:57.998Z,94754.19
2023-06-29T10:24:00.289Z,94751.00
2023-06-29T10:26:02.447Z,94733.72
2023-06-29T10:28:04.811Z,94741.16
2023-06-29T10:30:07.072Z,94744.84
2023-06-29T10:32:08.950Z,94736.66
2023-06-29T10:34:10.588Z,94748.03
2023-06-29T10:36:14.197Z,94739.13
2023-06-29T10:38:15.904Z,94743.78
2023-06-29T10:40:26.066Z,94741.69
2023-06-29T10:42:28.054Z,94732.44
2023-06-29T10:44:35.802Z,94744.78
2023-06-29T10:46:50.731Z,94732.44
2023-06-29T10:49:00.817Z,94733.72
2023-06-29T10:51:07.161Z,94741.75
2023-06-29T10:53:11.699Z,94740.50
2023-06-29T10:55:24.292Z,94728.88
2023-06-29T10:57:31.970Z,94735.94
2023-06-29T10:59:35.572Z,94725.50
2023-06-29T11:01:37.135Z,94724.97
2023-06-29T11:03:39.220Z,94728.84
2023-06-29T11:05:41.186Z,94729.16
2023-06-29T11:07:44.573Z,94724.16
2023-06-29T11:09:46.243Z,94728.31
2023-06-29T11:11:48.825Z,94726.63
2023-06-29T11:13:50.463Z,94720.53
2023-06-29T11:15:58.748Z,94721.97
2023-06-29T11:18:03.750Z,94731.84
2023-06-29T11:20:06.988Z,94731.56
2023-06-29T11:22:08.800Z,94718.84
2023-06-29T11:24:11.394Z,94729.13
2023-06-29T11:26:13.128Z,94712.28
2023-06-29T11:28:17.931Z,94715.97
2023-06-29T11:30:21.440Z,94718.06
2023-06-29T11:32:23.144Z,94725.91
2023-06-29T11:34:24.785Z,94712.94
2023-06-29T11:36:30.115Z,94714.69
2023-06-29T11:38:32.118Z,94699.16
2023-06-29T11:40:35.215Z,94704.44
2023-06-29T11:42:37.538Z,94707.91
2023-06-29T11:44:39.241Z,94715.53
2023-06-29T11:46:41.298Z,94697.13
2023-06-29T11:48:55.377Z,94695.34
2023-06-29T11:51:00.452Z,94697.97
2023-06-29T11:53:02.443Z,94703.13
2023-06-29T11:55:07.375Z,94699.69
2023-06-29T11:57:09.552Z,94691.94
2023-06-29T11:59:13.437Z,94695.13
2023-06-29T12:01:16.146Z,94697.41
2023-06-29T12:03:19.608Z,94688.31
2023-06-29T12:05:27.057Z,94692.09
2023-06-29T12:07:55.040Z,94691.13
2023-06-29T12:09:56.875Z,94690.44
2023-06-29T12:12:03.652Z,94699.31
2023-06-29T12:14:05.303Z,94696.03
2023-06-29T12:18:17.090Z,94692.56
2023-06-29T12:20:21.193Z,94685.28
2023-06-29T12:22:24.640Z,94679.25
2023-06-29T12:24:29.101Z,94677.41
2023-06-29T12:26:31.394Z,94683.94
2023-06-29T12:28:33.822Z,94681.31
2023-06-29T12:30:36.435Z,94683.16
2023-06-29T12:32:38.734Z,94679.16
2023-06-29T12:34:40.446Z,94688.59
2023-06-29T12:36:42.128Z,94677.91
2023-06-29T12:38:43.789Z,94680.78
2023-06-29T12:40:45.467Z,94686.22
2023-06-29T12:42:47.162Z,94681.38
2023-06-29T12:44:48.883Z,94696.31
2023-06-29T12:46:50.551Z,94676.69
2023-06-29T12:48:52.204Z,94674.53
2023-06-29T12:51:00.648Z,94668.69
2023-06-29T12:53:02.338Z,94658.50
2023-06-29T12:55:04.421Z,94667.00
2023-06-29T12:57:06.366Z,94669.47
2023-06-29T12:59:08.058Z,94661.09
2023-06-29T13:01:09.714Z,94653.06
2023-06-29T13:03:15.863Z,94656.56
2023-06-29T13:05:17.808Z,94658.44
2023-06-29T13:07:20.879Z,94656.72
2023-06-29T13:09:23.207Z,94655.41
2023-06-29T13:11:25.349Z,94653.56
2023-06-29T13:13:27.900Z,94661.59
2023-06-29T13:15:29.705Z,94652.25
2023-06-29T13:17:31.389Z,94665.44
2023-06-29T13:19:33.311Z,94652.00
2023-06-29T13:21:36.272Z,94655.03
2023-06-29T13:23:38.057Z,94652.28
2023-06-29T13:25:40.854Z,94654.03
2023-06-29T13:27:44.124Z,94644.63
2023-06-29T13:29:45.859Z,94646.19
2023-06-29T13:31:47.603Z,94650.31
2023-06-29T13:33:49.292Z,94648.59
2023-06-29T13:35:50.980Z,94633.41
2023-06-29T13:37:52.655Z,94639.75
2023-06-29T13:39:54.334Z,94641.53
2023-06-29T13:41:56.052Z,94638.69
2023-06-29T13:43:57.717Z,94633.50
2023-06-29T13:45:59.367Z,94637.31
2023-06-29T13:48:01.838Z,94639.28
2023-06-29T13:50:03.785Z,94641.03
2023-06-29T13:52:05.644Z,94635.13
2023-06-29T13:54:07.532Z,94631.06
2023-06-29T13:56:09.359Z,94638.63
2023-06-29T13:58:11.002Z,94636.03
2023-06-29T14:00:13.919Z,94630.28
2023-06-29T14:02:15.669Z,94638.78
2023-06-29T14:04:17.681Z,94637.56
2023-06-29T14:06:19.974Z,94635.28
2023-06-29T14:08:23.566Z,94635.66
2023-06-29T14:10:26.120Z,94641.38
2023-06-29T14:12:27.754Z,94646.38
2023-06-29T14:14:29.384Z,94631.16
2023-06-29T14:16:31.495Z,94640.63
2023-06-29T14:18:33.196Z,94637.81
2023-06-29T14:20:34.974Z,94641.34
2023-06-29T14:22:36.671Z,94633.84
2023-06-29T14:24:38.468Z,94631.41
2023-06-29T14:26:40.224Z,94636.25
2023-06-29T14:28:42.255Z,94644.38
2023-06-29T14:30:43.971Z,94640.19
2023-06-29T14:32:45.756Z,94635.44
2023-06-29T14:34:49.525Z,94628.25
2023-06-29T14:36:51.364Z,94637.56
2023-06-29T14:38:53.254Z,94635.81
2023-06-29T14:40:55.001Z,94630.81
2023-06-29T14:42:56.738Z,94617.47
2023-06-29T14:44:58.359Z,94621.78
2023-06-29T14:47:00.848Z,94622.16
2023-06-29T14:49:02.492Z,94625.88
2023-06-29T14:51:04.148Z,94624.38
2023-06-29T14:53:06.124Z,94627.50
2023-06-29T14:55:08.520Z,94612.72
2023-06-29T14:57:10.418Z,94616.00
2023-06-29T14:59:12.656Z,94612.63
2023-06-29T15:01:14.488Z,94607.47
2023-06-29T15:03:16.320Z,94613.28
2023-06-29T15:05:18.097Z,94611.50
2023-06-29T15:07:19.910Z,94612.63
2023-06-29T15:09:22.889Z,94609.50
2023-06-29T15:11:24.529Z,94618.91
2023-06-29T15:13:26.317Z,94619.84
2023-06-29T15:15:27.997Z,94614.00
2023-06-29T15:17:30.537Z,94613.75
2023-06-29T15:19:32.235Z,94605.44
2023-06-29T15:21:34.002Z,94606.97
2023-06-29T15:23:35.673Z,94616.00
2023-06-29T15:25:39.206Z,94606.91
2023-06-29T15:27:41.840Z,94618.66
2023-06-29T15:29:43.548Z,94613.06
2023-06-29T15:31:45.272Z,94609.38
2023-06-29T15:33:46.890Z,94610.78
2023-06-29T15:35:49.440Z,94599.03
2023-06-29T15:37:53.056Z,94605.25
2023-06-29T15:39:55.141Z,94611.72
2023-06-29T15:41:56.842Z,94617.09
2023-06-29T15:44:01.867Z,94623.63
2023-06-29T15:46:03.568Z,94615.66
2023-06-29T15:48:05.351Z,94620.56
2023-06-29T15:50:07.900Z,94619.59
2023-06-29T15:52:09.572Z,94611.19
2023-06-29T15:54:11.421Z,94614.84
2023-06-29T15:56:13.080Z,94611.41
2023-06-29T15:58:14.705Z,94608.03
2023-06-29T16:00:16.839Z,94609.59
2023-06-29T16:02:18.552Z,94606.50
2023-06-29T16:04:20.416Z,94615.81
2023-06-29T16:06:27.448Z,94616.47
2023-06-29T16:08:29.086Z,94613.41
2023-06-29T16:10:30.780Z,94624.09
2023-06-29T16:12:32.824Z,94622.44
2023-06-29T16:14:34.438Z,94616.44
2023-06-29T16:16:36.295Z,94619.97
2023-06-29T16:18:38.028Z,94621.19
2023-06-29T16:20:39.755Z,94626.34
2023-06-29T16:22:41.404Z,94621.41
2023-06-29T16:24:43.095Z,94623.31
2023-06-29T16:26:45.029Z,94634.78
2023-06-29T16:28:46.681Z,94632.16
2023-06-29T16:30:48.378Z,94634.56
2023-06-29T16:32:50.058Z,94627.56
2023-06-29T16:34:51.870Z,94625.09
2023-06-29T16:36:53.666Z,94621.28
2023-06-29T16:38:55.356Z,94632.47
2023-06-29T16:40:57.036Z,94626.38
2023-06-29T16:42:58.729Z,94631.72
2023-06-29T16:45:00.404Z,94633.88
2023-06-29T16:47:02.719Z,94632.72
2023-06-29T16:49:04.439Z,94632.97
2023-06-29T16:51:06.309Z,94624.25
2023-06-29T16:53:08.009Z,94629.31
2023-06-29T16:55:10.052Z,94626.50
2023-06-29T16:57:11.810Z,94622.97
2023-06-29T16:59:13.561Z,94626.09
2023-06-29T17:01:15.337Z,94639.41
2023-06-29T17:03:17.041Z,94630.63
2023-06-29T17:05:18.833Z,94634.88
2023-06-29T17:07:20.557Z,94632.06
2023-06-29T17:09:22.238Z,94629.13
2023-06-29T17:11:23.996Z,94628.34
2023-06-29T17:13:28.448Z,94629.97
2023-06-29T17:15:30.330Z,94626.19
2023-06-29T17:17:32.123Z,94630.94
2023-06-29T17:19:33.879Z,94628.44
2023-06-29T17:21:35.608Z,94633.03
2023-06-29T17:23:37.273Z,94626.81
2023-06-29T17:25:48.326Z,94636.22
2023-06-29T17:27:50.067Z,94635.88
2023-06-29T17:29:51.768Z,94632.81
2023-06-29T17:31:54.283Z,94639.16
2023-06-29T17:33:56.269Z,94634.75
2023-06-29T17:35:57.895Z,94638.81
2023-06-29T17:37:59.566Z,94643.09
2023-06-29T17:40:02.318Z,94641.81
2023-06-29T17:42:04.245Z,94645.59
2023-06-29T17:44:06.094Z,94643.72
2023-06-29T17:46:07.856Z,94643.34
2023-06-29T17:48:10.518Z,94650.47
2023-06-29T17:50:12.189Z,94642.38
2023-06-29T17:52:13.841Z,94639.47
2023-06-29T17:54:15.489Z,94634.78
2023-06-29T17:56:17.369Z,94650.09
2023-06-29T17:58:19.111Z,94655.91
2023-06-29T18:00:21.086Z,94657.75
2023-06-29T18:02:22.868Z,94656.47
2023-06-29T18:04:25.068Z,94661.97
2023-06-29T18:06:26.971Z,94659.41
2023-06-29T18:08:28.657Z,94666.03
2023-06-29T18:10:30.379Z,94671.09
2023-06-29T18:12:32.256Z,94666.56
2023-06-29T18:14:33.876Z,94672.72
2023-06-29T18:16:36.924Z,94672.72
2023-06-29T18:18:38.618Z,94676.41
2023-06-29T18:20:40.366Z,94678.50
2023-06-29T18:22:42.140Z,94680.47
2023-06-29T18:24:43.773Z,94685.41
2023-06-29T18:26:46.764Z,94685.28
2023-06-29T18:28:49.724Z,94678.97
2023-06-29T18:30:51.628Z,94689.28
2023-06-29T18:32:53.647Z,94687.78
2023-06-29T18:34:55.378Z,94692.56
2023-06-29T18:36:57.081Z,94691.13
2023-06-29T18:38:58.750Z,94690.31
2023-06-29T18:41:02.308Z,94693.19
2023-06-29T18:43:03.866Z,94695.97
2023-06-29T18:45:07.145Z,94698.03
2023-06-29T18:47:11.006Z,94696.19
2023-06-29T18:49:13.759Z,94701.28
2023-06-29T18:51:15.462Z,94703.94
2023-06-29T18:53:17.259Z,94713.88
2023-06-29T18:55:19.109Z,94705.44
2023-06-29T18:57:20.824Z,94715.06
2023-06-29T18:59:22.857Z,94711.81
2023-06-29T19:01:24.575Z,94712.84
2023-06-29T19:03:28.031Z,94721.06
2023-06-29T19:05:30.867Z,94714.78
2023-06-29T19:07:32.619Z,94708.94
2023-06-29T19:09:34.336Z,94711.59
2023-06-29T19:11:36.106Z,94711.47
2023-06-29T19:13:37.800Z,94711.31
2023-06-29T19:15:41.420Z,94711.47
2023-06-29T19:17:43.115Z,94715.53
2023-06-29T19:19:45.212Z,94717.59
2023-06-29T19:21:49.003Z,94712.72
2023-06-29T19:23:51.406Z,94719.72
2023-06-29T19:25:53.040Z,94724.72
2023-06-29T19:27:54.691Z,94724.38
2023-06-29T19:29:56.428Z,94716.16
2023-06-29T19:31:58.125Z,94717.84
2023-06-29T19:34:00.531Z,94714.59
2023-06-29T19:36:02.214Z,94719.91
2023-06-29T19:38:03.903Z,94719.31
2023-06-29T19:40:06.339Z,94725.09
2023-06-29T19:42:09.529Z,94728.56
2023-06-29T19:44:11.281Z,94725.25
2023-06-29T19:46:12.972Z,94727.31
2023-06-29T19:48:15.313Z,94729.75
2023-06-29T19:50:17.867Z,94727.25
2023-06-29T19:52:19.997Z,94719.84
2023-06-29T19:54:21.701Z,94722.31
2023-06-29T19:56:23.559Z,94727.03
2023-06-29T19:58:25.580Z,94721.69
2023-06-29T20:00:29.101Z,94732.13
2023-06-29T20:02:32.507Z,94728.88
2023-06-29T20:04:34.315Z,94728.63
2023-06-29T20:06:36.143Z,94727.63
2023-06-29T20:08:37.842Z,94735.00
2023-06-29T20:10:39.521Z,94727.25
2023-06-29T20:12:41.160Z,94733.81
2023-06-29T20:14:42.838Z,94731.81
2023-06-29T20:16:44.801Z,94738.00
2023-06-29T20:18:46.579Z,94735.56
2023-06-29T20:20:48.384Z,94738.06
2023-06-29T20:22:50.111Z,94738.63
2023-06-29T20:24:51.802Z,94748.50
2023-06-29T20:26:53.488Z,94748.31
2023-06-29T20:28:56.729Z,94748.16
2023-06-29T20:30:58.388Z,94743.50
2023-06-29T20:33:00.082Z,94740.88
2023-06-29T20:35:01.826Z,94746.63
2023-06-29T20:37:03.783Z,94745.59
2023-06-29T20:39:05.516Z,94747.88
2023-06-29T20:41:07.272Z,94754.44
2023-06-29T20:43:08.990Z,94751.19
2023-06-29T20:45:13.421Z,94741.94
2023-06-29T20:47:15.651Z,94746.47
2023-06-29T20:49:20.500Z,94741.59
2023-06-29T20:51:22.182Z,94739.94
2023-06-29T20:53:23.878Z,94737.72
2023-06-29T20:55:25.516Z,94741.59
2023-06-29T20:57:27.222Z,94735.06
2023-06-29T20:59:31.753Z,94743.03
2023-06-29T21:01:34.496Z,94737.72
2023-06-29T21:03:36.479Z,94741.78
2023-06-29T21:05:38.278Z,94741.59
2023-06-29T21:07:40.800Z,94740.94
2023-06-29T21:09:42.616Z,94737.69
2023-06-29T21:11:44.380Z,94734.22
2023-06-29T21:13:46.251Z,94733.38
2023-06-29T21:15:48.461Z,94737.47
2023-06-29T21:17:50.595Z,94740.13
2023-06-29T21:19:53.128Z,94736.63
2023-06-29T21:21:55.008Z,94738.50
2023-06-29T21:23:56.822Z,94738.50
2023-06-29T21:25:58.756Z,94736.09
2023-06-29T21:28:00.640Z,94741.22
2023-06-29T21:30:03.337Z,94747.22
2023-06-29T21:32:07.525Z,94737.06
2023-06-29T21:34:10.875Z,94731.78
2023-06-29T21:36:13.059Z,94737.31
2023-06-29T21:38:14.916Z,94737.16
2023-06-29T21:40:16.619Z,94729.97
2023-06-29T21:42:19.783Z,94724.88
2023-06-29T21:44:21.575Z,94728.38
2023-06-29T21:46:23.250Z,94737.22
2023-06-29T21:48:24.911Z,94730.47
2023-06-29T21:50:26.737Z,94727.03
2023-06-29T21:52:29.105Z,94725.41
2023-06-29T21:54:30.815Z,94721.31
2023-06-29T21:56:32.529Z,94727.88
2023-06-29T21:58:34.176Z,94726.06
2023-06-29T22:00:36.725Z,94722.41
2023-06-29T22:02:38.781Z,94719.13
2023-06-29T22:04:40.577Z,94719.16
2023-06-29T22:06:42.238Z,94716.13
2023-06-29T22:08:43.920Z,94719.78
2023-06-29T22:10:45.644Z,94724.06
2023-06-29T22:12:49.369Z,94727.53
2023-06-29T22:14:50.935Z,94723.88
2023-06-29T22:16:52.660Z,94734.09
2023-06-29T22:18:54.398Z,94727.13
2023-06-29T22:20:56.229Z,94734.50
2023-06-29T22:22:58.963Z,94729.19
2023-06-29T22:25:00.584Z,94731.47
2023-06-29T22:27:02.197Z,94733.06
2023-06-29T22:29:03.924Z,94728.38
2023-06-29T22:31:05.690Z,94732.44
2023-06-29T22:33:07.456Z,94733.06
2023-06-29T22:35:09.293Z,94733.28
2023-06-29T22:37:10.980Z,94731.59
2023-06-29T22:39:12.722Z,94735.69
2023-06-29T22:41:14.964Z,94729.97
2023-06-29T22:43:16.667Z,94726.09
2023-06-29T22:45:19.217Z,94726.09
2023-06-29T22:47:22.465Z,94722.63
2023-06-29T22:49:24.173Z,94719.97
2023-06-29T22:51:26.229Z,94716.88
2023-06-29T22:53:28.084Z,94733.63
2023-06-29T22:55:29.785Z,94718.69
2023-06-29T22:57:31.634Z,94725.47
2023-06-29T22:59:33.278Z,94722.59
2023-06-29T23:01:35.233Z,94720.56
2023-06-29T23:03:37.089Z,94709.41
2023-06-29T23:05:38.832Z,94714.91
2023-06-29T23:07:45.035Z,94718.16
2023-06-29T23:09:47.148Z,94725.31
2023-06-29T23:11:49.789Z,94717.72
2023-06-29T23:13:51.914Z,94722.63
2023-06-29T23:15:53.670Z,94721.41
2023-06-29T23:17:55.353Z,94719.56
2023-06-29T23:19:58.285Z,94723.84
2023-06-29T23:21:59.977Z,94720.16
2023-06-29T23:24:04.497Z,94729.38
2023-06-29T23:26:08.708Z,94726.72
2023-06-29T23:28:10.762Z,94732.84
2023-06-29T23:30:14.012Z,94732.22
2023-06-29T23:32:15.720Z,94727.13
2023-06-29T23:34:17.475Z,94735.69
2023-06-29T23:36:22.593Z,94726.31
2023-06-29T23:38:24.538Z,94726.94
2023-06-29T23:40:27.268Z,94739.00
2023-06-29T23:42:29.094Z,94733.91
2023-06-29T23:44:30.895Z,94732.28
2023-06-29T23:46:46.110Z,94727.34
2023-06-29T23:48:47.772Z,94731.03
2023-06-29T23:50:49.544Z,94725.94
2023-06-29T23:52:51.221Z,94726.78
2023-06-29T23:54:52.978Z,94733.69
2023-06-29T23:56:54.696Z,94732.88
2023-06-29T23:58:56.393Z,94726.13
